Aérodrome :







RETROUVEZ-NOUS SUR...

 
LOGIN :

S'inscrire | Disclaimer

   EN    FR    IT 

 









Légende :    VFR   VFR Marginal   IFR   IFR Intensif   IFR Très Intensif
Visi : 
Plafond : 
>= 8 km
>= 3000ft
5 à 8 km
1000 à 3000 ft
1500m à 5 km
500 à 1000 ft
800 à 1500m
200 à 500 ft
< 800m
< 200 ft
Symboles :   Orages  Brouillard  Fortes neiges  Fortes précipitations  Vent > 20 kt






- Altitude de l'aérodrome : 72 ft
- Code IATA : YDF


CYDF - Deer Lake

DERNIER METAR :
  • 021400Z 03004KT 3SM -RA BR SCT006 BKN012 OVC030 09/09 A2978 RMK SC4SC3SC1 SLP085

METARs EXPIRÉS :
  • 021300Z 02005KT 350V050 6SM -RA BR SCT006 OVC010 09/08 A2978 RMK SF3SC5 SLP086
  • 021200Z 03010KT 3SM -RA BR OVC006 09/08 A2979 RMK SC8 SLP090

TAF TAF CYDF
Valide du 02 à 14h jusqu'au 03 à 00h UTC


021340Z 0214/0224 03010G20KT P6SM -DZ SCT005 OVC012
TEMPO 0214/0218 2SM -RA BR OVC005
FM021800 05012KT P6SM -RA FEW007 OVC012
TEMPO 0218/0224 3SM -SHRA BR BKN007 RMK NXT FCST BY 022000Z
FIR CZQX / Amérique du Nord



MET'MAP, la Météo Aéronautique d'un coup d'oeil ! - Copyright ORBIFLY Décembre 2007 - Disclaimer

ORBIFLY MET'MAP TEAM :

Programmation & Développement : Alexandra Zaïnal
Sur une idée originale de : Baudouin d'Aumeries
Assistance à la programmation : Marc-Olivier Méhu
Soutien technique & logistique : Manuel Goepfert

Contact : metmap@orbifly.com




SOURCES & CREDITS :

   NOAA